createdAt,value
2022-10-17T00:02:05.376Z,11.78
2022-10-17T00:04:31.843Z,11.88
2022-10-17T00:06:58.285Z,11.82
2022-10-17T00:09:24.697Z,11.80
2022-10-17T00:11:51.087Z,11.68
2022-10-17T00:14:17.674Z,11.73
2022-10-17T00:16:44.099Z,11.79
2022-10-17T00:19:10.516Z,11.93
2022-10-17T00:21:36.985Z,11.96
2022-10-17T00:24:03.609Z,11.99
2022-10-17T00:26:30.143Z,12.04
2022-10-17T00:28:56.796Z,12.18
2022-10-17T00:31:24.860Z,12.24
2022-10-17T00:33:52.516Z,12.21
2022-10-17T00:36:22.099Z,12.23
2022-10-17T00:38:51.460Z,12.20
2022-10-17T00:41:21.240Z,12.31
2022-10-17T00:44:02.039Z,12.28
2022-10-17T00:46:34.106Z,12.32
2022-10-17T00:49:04.293Z,12.20
2022-10-17T00:51:36.682Z,12.35
2022-10-17T00:54:04.273Z,12.25
2022-10-17T00:56:31.155Z,12.25
2022-10-17T00:58:57.958Z,12.29
2022-10-17T01:01:24.711Z,12.27
2022-10-17T01:03:51.187Z,12.29
2022-10-17T01:06:17.609Z,12.41
2022-10-17T01:08:44.174Z,12.47
2022-10-17T01:11:25.504Z,12.33
2022-10-17T01:13:59.858Z,12.14
2022-10-17T01:16:48.993Z,12.30
2022-10-17T01:19:43.112Z,12.30
2022-10-17T01:22:18.872Z,12.38
2022-10-17T01:25:11.306Z,12.46
2022-10-17T01:27:49.047Z,12.59
2022-10-17T01:30:53.157Z,12.55
2022-10-17T01:33:41.415Z,12.37
2022-10-17T01:36:22.972Z,12.48
2022-10-17T01:38:53.602Z,12.27
2022-10-17T01:41:39.354Z,12.30
2022-10-17T01:44:13.970Z,12.32
2022-10-17T01:46:46.893Z,12.53
2022-10-17T01:49:17.349Z,12.32
2022-10-17T01:51:52.369Z,12.58
2022-10-17T01:54:25.273Z,12.49
2022-10-17T01:56:57.715Z,12.55
2022-10-17T01:59:29.194Z,12.40
2022-10-17T02:01:58.020Z,12.61
2022-10-17T02:04:25.964Z,12.22
2022-10-17T02:06:52.566Z,12.32
2022-10-17T02:09:27.222Z,12.31
2022-10-17T02:12:34.957Z,12.35
2022-10-17T02:15:17.313Z,12.20
2022-10-17T02:18:00.696Z,12.24
2022-10-17T02:20:37.592Z,12.23
2022-10-17T02:23:21.988Z,12.38
2022-10-17T02:25:54.224Z,12.75
2022-10-17T02:28:28.276Z,13.14
2022-10-17T02:31:10.228Z,13.44
2022-10-17T02:33:51.328Z,13.70
2022-10-17T02:36:23.201Z,14.08
2022-10-17T02:38:52.531Z,14.35
2022-10-17T02:41:20.124Z,14.68
2022-10-17T02:43:49.075Z,15.04
2022-10-17T02:46:21.062Z,15.28
2022-10-17T02:48:54.403Z,15.19
2022-10-17T02:51:35.279Z,14.92
2022-10-17T02:54:19.841Z,15.05
2022-10-17T02:56:53.203Z,15.29
2022-10-17T02:59:25.783Z,15.70
2022-10-17T03:01:52.935Z,16.21
2022-10-17T03:04:19.878Z,16.02
2022-10-17T03:06:48.018Z,15.89
2022-10-17T03:09:15.631Z,15.65
2022-10-17T03:11:42.190Z,15.39
2022-10-17T03:14:08.758Z,14.93
2022-10-17T03:16:35.224Z,14.49
2022-10-17T03:19:01.631Z,14.21
2022-10-17T03:21:28.063Z,13.91
2022-10-17T03:23:54.470Z,13.67
2022-10-17T03:26:21.023Z,13.64
2022-10-17T03:28:50.647Z,13.42
2022-10-17T03:31:19.905Z,13.51
2022-10-17T03:33:46.545Z,13.23
2022-10-17T03:36:15.666Z,13.18
2022-10-17T03:38:43.243Z,13.13
2022-10-17T03:41:10.165Z,12.84
2022-10-17T03:43:37.439Z,12.81
2022-10-17T03:46:04.081Z,12.81
2022-10-17T03:48:31.100Z,12.87
2022-10-17T03:51:02.602Z,12.97
2022-10-17T03:53:29.135Z,12.99
2022-10-17T03:55:56.081Z,12.84
2022-10-17T03:58:22.524Z,12.91
2022-10-17T04:00:48.952Z,12.86
2022-10-17T04:03:17.361Z,12.66
2022-10-17T04:05:43.937Z,12.77
2022-10-17T04:08:10.371Z,12.66
2022-10-17T04:10:36.756Z,12.73
2022-10-17T04:13:03.218Z,12.82
2022-10-17T04:15:29.731Z,12.62
2022-10-17T04:17:56.248Z,12.72
2022-10-17T04:20:22.746Z,12.81
2022-10-17T04:22:49.108Z,12.70
2022-10-17T04:25:15.576Z,12.74
2022-10-17T04:27:42.019Z,12.77
2022-10-17T04:30:08.802Z,12.84
2022-10-17T04:32:41.267Z,12.77
2022-10-17T04:35:08.229Z,12.79
2022-10-17T04:37:34.721Z,12.58
2022-10-17T04:40:01.185Z,12.60
2022-10-17T04:42:29.583Z,12.67
2022-10-17T04:44:56.175Z,12.43
2022-10-17T04:47:22.570Z,12.53
2022-10-17T04:49:48.964Z,12.63
2022-10-17T04:52:15.374Z,12.69
2022-10-17T04:54:41.805Z,12.59
2022-10-17T04:57:08.240Z,12.46
2022-10-17T04:59:34.627Z,12.52
2022-10-17T05:02:00.994Z,12.50
2022-10-17T05:04:27.456Z,12.46
2022-10-17T05:06:53.894Z,12.51
2022-10-17T05:09:20.286Z,12.34
2022-10-17T05:11:46.876Z,12.61
2022-10-17T05:14:13.263Z,12.72
2022-10-17T05:16:39.607Z,12.78
2022-10-17T05:19:06.095Z,12.93
2022-10-17T05:24:09.064Z,12.86
2022-10-17T05:26:35.698Z,12.73
2022-10-17T05:29:03.070Z,13.21
2022-10-17T05:31:30.697Z,13.38
2022-10-17T05:34:01.529Z,13.54
2022-10-17T05:36:28.195Z,13.97
2022-10-17T05:38:54.632Z,14.10
2022-10-17T05:41:21.631Z,14.23
2022-10-17T05:43:48.354Z,14.29
2022-10-17T05:46:14.853Z,14.35
2022-10-17T05:48:41.290Z,14.40
2022-10-17T05:51:09.366Z,14.62
2022-10-17T05:53:38.999Z,14.65
2022-10-17T05:56:07.904Z,14.63
2022-10-17T05:58:52.322Z,14.57
2022-10-17T06:01:20.969Z,14.63
2022-10-17T06:03:47.532Z,14.44
2022-10-17T06:06:14.815Z,14.24
2022-10-17T06:08:41.563Z,14.35
2022-10-17T06:11:10.220Z,14.23
2022-10-17T06:13:38.355Z,14.23
2022-10-17T06:16:05.360Z,14.55
2022-10-17T06:18:32.066Z,14.70
2022-10-17T06:21:06.644Z,15.18
2022-10-17T06:23:33.252Z,15.48
2022-10-17T06:26:01.645Z,16.03
2022-10-17T06:28:28.130Z,16.37
2022-10-17T06:30:54.720Z,16.35
2022-10-17T06:33:21.516Z,16.76
2022-10-17T06:35:55.029Z,17.01
2022-10-17T06:38:22.200Z,17.34
2022-10-17T06:40:48.806Z,17.73
2022-10-17T06:43:15.541Z,17.42
2022-10-17T06:45:42.194Z,17.85
2022-10-17T06:48:09.172Z,18.21
2022-10-17T06:50:35.579Z,18.36
2022-10-17T06:53:02.157Z,18.41
2022-10-17T06:55:28.659Z,18.18
2022-10-17T06:57:56.325Z,18.35
2022-10-17T07:00:23.489Z,18.73
2022-10-17T07:02:50.213Z,18.68
2022-10-17T07:05:17.215Z,19.35
2022-10-17T07:07:44.826Z,20.08
2022-10-17T07:10:12.904Z,20.48
2022-10-17T07:12:39.309Z,20.17
2022-10-17T07:15:06.239Z,20.84
2022-10-17T07:17:32.828Z,20.51
2022-10-17T07:19:59.346Z,21.73
2022-10-17T07:22:25.699Z,21.98
2022-10-17T07:24:52.114Z,22.09
2022-10-17T07:27:18.607Z,22.25
2022-10-17T07:29:44.950Z,21.39
2022-10-17T07:32:11.366Z,21.70
2022-10-17T07:34:37.763Z,21.46
2022-10-17T07:37:04.416Z,21.63
2022-10-17T07:39:30.788Z,21.67
2022-10-17T07:41:58.730Z,21.91
2022-10-17T07:44:25.220Z,22.45
2022-10-17T07:46:51.683Z,22.00
2022-10-17T07:49:18.101Z,22.20
2022-10-17T07:51:44.643Z,22.77
2022-10-17T07:54:11.089Z,22.44
2022-10-17T07:56:37.507Z,22.37
2022-10-17T07:59:06.762Z,21.14
2022-10-17T08:01:36.192Z,20.37
2022-10-17T08:04:02.679Z,20.42
2022-10-17T08:06:29.264Z,21.12
2022-10-17T08:08:55.711Z,21.01
2022-10-17T08:11:23.152Z,21.80
2022-10-17T08:13:49.629Z,21.00
2022-10-17T08:16:16.098Z,21.00
2022-10-17T08:18:43.647Z,21.51
2022-10-17T08:21:11.535Z,20.63
2022-10-17T08:23:38.103Z,20.99
2022-10-17T08:26:08.204Z,20.61
2022-10-17T08:28:36.248Z,19.97
2022-10-17T08:31:21.864Z,20.68
2022-10-17T08:33:50.470Z,21.44
2022-10-17T08:36:19.451Z,20.91
2022-10-17T08:38:50.316Z,21.07
2022-10-17T08:41:54.545Z,21.73
2022-10-17T08:45:05.168Z,22.12
2022-10-17T08:47:39.139Z,21.28
2022-10-17T08:50:10.950Z,20.96
2022-10-17T08:52:48.213Z,21.15
2022-10-17T08:55:32.280Z,20.51
2022-10-17T08:57:58.844Z,21.22
2022-10-17T09:00:28.542Z,21.87
2022-10-17T09:03:14.979Z,21.43
2022-10-17T09:05:49.710Z,21.55
2022-10-17T09:08:50.148Z,20.60
2022-10-17T09:11:31.662Z,21.08
2022-10-17T09:14:26.065Z,21.94
2022-10-17T09:17:15.725Z,22.49
2022-10-17T09:20:03.285Z,22.64
2022-10-17T09:22:37.604Z,23.64
2022-10-17T09:25:10.005Z,23.11
2022-10-17T09:27:48.185Z,23.38
2022-10-17T09:30:44.120Z,23.65
2022-10-17T09:33:23.375Z,24.10
2022-10-17T09:36:04.958Z,25.08
2022-10-17T09:38:39.731Z,26.25
2022-10-17T09:41:39.145Z,27.63
2022-10-17T09:44:14.301Z,29.57
2022-10-17T09:46:44.936Z,29.42
2022-10-17T09:49:17.765Z,29.11
2022-10-17T09:51:44.535Z,29.69
2022-10-17T09:54:23.995Z,30.23
2022-10-17T09:57:17.840Z,29.67
2022-10-17T09:59:56.574Z,29.57
2022-10-17T10:02:24.770Z,29.79
2022-10-17T10:05:06.474Z,30.48
2022-10-17T10:07:37.909Z,30.17
2022-10-17T10:10:08.356Z,29.82
2022-10-17T10:12:39.298Z,30.18
2022-10-17T10:15:33.881Z,31.63
2022-10-17T10:18:00.396Z,29.62
2022-10-17T10:20:28.763Z,29.53
2022-10-17T10:23:17.573Z,27.44
2022-10-17T10:25:58.966Z,29.66
2022-10-17T10:28:33.098Z,28.78
2022-10-17T10:31:04.645Z,28.59
2022-10-17T10:33:34.565Z,29.17
2022-10-17T10:36:04.087Z,27.45
2022-10-17T10:38:32.677Z,28.10
2022-10-17T10:41:11.506Z,28.16
2022-10-17T10:43:45.262Z,26.06
2022-10-17T10:46:20.156Z,26.19
2022-10-17T10:48:59.637Z,25.56
2022-10-17T10:51:44.204Z,27.35
2022-10-17T10:54:23.645Z,27.56
2022-10-17T10:56:54.007Z,26.64
2022-10-17T10:59:41.088Z,27.45
2022-10-17T11:02:07.385Z,27.25
2022-10-17T11:04:57.098Z,27.60
2022-10-17T11:07:30.552Z,29.00
2022-10-17T11:10:00.211Z,28.14
2022-10-17T11:12:41.660Z,27.57
2022-10-17T11:15:43.421Z,26.55
2022-10-17T11:18:26.701Z,29.01
2022-10-17T11:21:10.492Z,27.44
2022-10-17T11:23:47.664Z,27.63
2022-10-17T11:26:27.934Z,30.13
2022-10-17T11:28:55.623Z,27.19
2022-10-17T11:31:25.190Z,29.26
2022-10-17T11:34:00.306Z,30.48
2022-10-17T11:36:31.224Z,30.75
2022-10-17T11:39:10.532Z,27.97
2022-10-17T11:41:43.043Z,27.88
2022-10-17T11:44:31.562Z,29.45
2022-10-17T11:47:04.858Z,31.35
2022-10-17T11:53:12.266Z,30.03
2022-10-17T11:55:42.306Z,29.24
2022-10-17T11:58:32.609Z,28.64
2022-10-17T12:01:08.177Z,27.30
2022-10-17T12:04:13.821Z,25.81
2022-10-17T12:07:01.093Z,27.55
2022-10-17T12:09:59.984Z,27.90
2022-10-17T12:12:29.596Z,28.51
2022-10-17T12:15:26.096Z,31.26
2022-10-17T12:18:03.359Z,29.12
2022-10-17T12:20:37.604Z,28.33
2022-10-17T12:23:12.767Z,30.02
2022-10-17T12:25:51.838Z,28.28
2022-10-17T12:28:42.219Z,27.97
2022-10-17T12:31:13.628Z,27.20
2022-10-17T12:33:45.903Z,28.48
2022-10-17T12:36:18.617Z,26.55
2022-10-17T12:38:50.160Z,27.38
2022-10-17T12:41:37.216Z,29.23
2022-10-17T12:44:28.200Z,29.51
2022-10-17T12:47:10.605Z,29.60
2022-10-17T12:49:41.388Z,27.88
2022-10-17T12:52:31.130Z,27.64
2022-10-17T12:55:12.691Z,27.72
2022-10-17T12:57:51.641Z,27.12
2022-10-17T13:00:20.838Z,27.56
2022-10-17T13:02:49.835Z,27.08
2022-10-17T13:05:32.916Z,28.09
2022-10-17T13:08:02.402Z,28.10
2022-10-17T13:10:32.052Z,27.08
2022-10-17T13:13:13.020Z,27.35
2022-10-17T13:15:39.581Z,25.88
2022-10-17T13:18:06.070Z,23.88
2022-10-17T13:20:32.856Z,23.84
2022-10-17T13:22:59.778Z,22.87
2022-10-17T13:25:27.587Z,24.11
2022-10-17T13:28:06.362Z,25.77
2022-10-17T13:30:35.122Z,25.48
2022-10-17T13:33:02.461Z,26.84
2022-10-17T13:36:00.110Z,28.74
2022-10-17T13:38:25.558Z,27.69
2022-10-17T13:40:57.921Z,27.59
2022-10-17T13:43:28.318Z,30.01
2022-10-17T13:46:13.679Z,27.64
2022-10-17T13:48:49.378Z,26.26
2022-10-17T13:51:16.121Z,25.80
2022-10-17T13:53:44.489Z,26.59
2022-10-17T13:56:29.900Z,26.99
2022-10-17T13:59:09.231Z,27.75
2022-10-17T14:01:38.178Z,27.65
2022-10-17T14:04:10.417Z,26.74
2022-10-17T14:06:47.598Z,25.92
2022-10-17T14:09:25.043Z,25.86
2022-10-17T14:12:19.255Z,25.15
2022-10-17T14:15:09.631Z,25.22
2022-10-17T14:17:38.540Z,25.05
2022-10-17T14:20:40.801Z,25.12
2022-10-17T14:23:21.047Z,23.76
2022-10-17T14:25:41.263Z,23.65
2022-10-17T14:28:09.437Z,23.24
2022-10-17T14:30:55.582Z,23.38
2022-10-17T14:33:24.675Z,22.87
2022-10-17T14:35:52.789Z,22.93
2022-10-17T14:38:20.648Z,22.76
2022-10-17T14:41:44.250Z,22.72
2022-10-17T14:44:30.639Z,22.91
2022-10-17T14:47:18.240Z,23.21
2022-10-17T14:49:51.772Z,22.77
2022-10-17T14:52:18.990Z,22.74
2022-10-17T14:54:49.945Z,22.64
2022-10-17T14:57:22.480Z,22.72
2022-10-17T14:59:54.347Z,22.89
2022-10-17T15:02:25.888Z,22.97
2022-10-17T15:04:52.962Z,23.11
2022-10-17T15:07:21.115Z,22.52
2022-10-17T15:09:49.473Z,22.04
2022-10-17T15:12:19.222Z,22.05
2022-10-17T15:14:47.792Z,22.00
2022-10-17T15:17:29.015Z,22.08
2022-10-17T15:19:56.648Z,22.08
2022-10-17T15:22:24.361Z,22.39
2022-10-17T15:24:50.738Z,22.57
2022-10-17T15:27:19.494Z,22.66
2022-10-17T15:29:46.826Z,21.87
2022-10-17T15:32:13.636Z,21.77
2022-10-17T15:34:40.092Z,21.83
2022-10-17T15:37:14.394Z,22.03
2022-10-17T15:39:40.823Z,21.91
2022-10-17T15:42:12.082Z,21.85
2022-10-17T15:44:38.618Z,21.64
2022-10-17T15:47:06.326Z,21.49
2022-10-17T15:49:33.902Z,21.46
2022-10-17T15:52:00.286Z,21.40
2022-10-17T15:54:26.647Z,21.26
2022-10-17T15:56:55.128Z,21.25
2022-10-17T15:59:28.395Z,20.86
2022-10-17T16:01:54.802Z,20.69
2022-10-17T16:04:21.573Z,20.51
2022-10-17T16:06:49.179Z,20.31
2022-10-17T16:09:15.571Z,20.08
2022-10-17T16:11:43.455Z,19.96
2022-10-17T16:14:13.245Z,19.66
2022-10-17T16:16:40.175Z,19.65
2022-10-17T16:19:06.765Z,19.49
2022-10-17T16:21:35.785Z,19.47
2022-10-17T16:24:02.708Z,19.60
2022-10-17T16:26:29.433Z,19.76
2022-10-17T16:28:57.803Z,19.72
2022-10-17T16:31:30.783Z,19.73
2022-10-17T16:33:59.255Z,19.40
2022-10-17T16:36:26.318Z,19.15
2022-10-17T16:38:54.132Z,19.12
2022-10-17T16:41:25.326Z,19.15
2022-10-17T16:43:53.397Z,18.91
2022-10-17T16:46:20.758Z,18.70
2022-10-17T16:48:47.577Z,18.81
2022-10-17T16:51:14.952Z,18.79
2022-10-17T16:53:44.734Z,18.78
2022-10-17T16:56:13.400Z,18.77
2022-10-17T16:58:41.067Z,18.57
2022-10-17T17:01:12.983Z,18.48
2022-10-17T17:03:41.770Z,18.31
2022-10-17T17:06:09.389Z,18.26
2022-10-17T17:08:38.490Z,18.15
2022-10-17T17:11:09.935Z,17.93
2022-10-17T17:13:36.846Z,17.76
2022-10-17T17:16:13.565Z,17.66
2022-10-17T17:18:41.015Z,17.59
2022-10-17T17:21:09.442Z,17.45
2022-10-17T17:23:38.027Z,17.23
2022-10-17T17:26:24.266Z,17.27
2022-10-17T17:28:51.371Z,17.27
2022-10-17T17:31:24.164Z,17.24
2022-10-17T17:33:51.592Z,17.10
2022-10-17T17:36:21.554Z,17.02
2022-10-17T17:38:49.391Z,16.99
2022-10-17T17:41:18.871Z,16.97
2022-10-17T17:43:46.861Z,16.86
2022-10-17T17:46:15.769Z,16.76
2022-10-17T17:48:44.987Z,16.57
2022-10-17T17:51:13.858Z,16.41
2022-10-17T17:53:40.988Z,16.22
2022-10-17T17:56:15.629Z,16.07
2022-10-17T17:58:45.620Z,16.02
2022-10-17T18:01:19.833Z,16.02
2022-10-17T18:03:46.987Z,15.98
2022-10-17T18:06:13.841Z,16.00
2022-10-17T18:08:43.434Z,15.98
2022-10-17T18:11:10.114Z,16.00
2022-10-17T18:13:36.652Z,15.99
2022-10-17T18:16:03.350Z,16.02
2022-10-17T18:18:30.438Z,16.01
2022-10-17T18:21:00.852Z,16.00
2022-10-17T18:23:27.259Z,15.84
2022-10-17T18:25:58.338Z,15.66
2022-10-17T18:28:25.042Z,15.53
2022-10-17T18:30:51.585Z,15.42
2022-10-17T18:33:17.987Z,15.30
2022-10-17T18:35:44.511Z,15.26
2022-10-17T18:38:11.141Z,15.30
2022-10-17T18:40:37.641Z,15.36
2022-10-17T18:43:04.241Z,15.32
2022-10-17T18:45:30.980Z,15.32
2022-10-17T18:47:57.827Z,15.28
2022-10-17T18:50:25.121Z,15.23
2022-10-17T18:52:51.653Z,15.15
2022-10-17T18:55:20.393Z,15.08
2022-10-17T18:57:50.621Z,15.04
2022-10-17T19:00:17.456Z,15.01
2022-10-17T19:02:44.079Z,14.97
2022-10-17T19:05:10.466Z,14.95
2022-10-17T19:07:37.024Z,14.93
2022-10-17T19:10:03.650Z,15.00
2022-10-17T19:12:30.171Z,15.01
2022-10-17T19:14:57.378Z,15.03
2022-10-17T19:17:23.818Z,14.86
2022-10-17T19:19:52.158Z,14.57
2022-10-17T19:22:18.752Z,14.59
2022-10-17T19:24:45.211Z,14.65
2022-10-17T19:27:12.202Z,14.82
2022-10-17T19:29:43.300Z,14.87
2022-10-17T19:32:15.589Z,14.85
2022-10-17T19:34:44.535Z,14.73
2022-10-17T19:37:10.982Z,14.73
2022-10-17T19:39:37.537Z,14.70
2022-10-17T19:42:06.757Z,14.73
2022-10-17T19:44:33.926Z,14.71
2022-10-17T19:47:00.311Z,14.71
2022-10-17T19:49:26.878Z,14.75
2022-10-17T19:51:53.371Z,14.86
2022-10-17T19:54:20.310Z,14.92
2022-10-17T19:56:46.870Z,14.97
2022-10-17T19:59:14.952Z,14.92
2022-10-17T20:01:41.545Z,14.89
2022-10-17T20:04:09.262Z,14.88
2022-10-17T20:06:35.890Z,14.89
2022-10-17T20:09:03.211Z,14.91
2022-10-17T20:11:30.494Z,14.90
2022-10-17T20:13:59.019Z,14.71
2022-10-17T20:16:29.657Z,14.79
2022-10-17T20:19:02.382Z,14.92
2022-10-17T20:21:34.815Z,15.04
2022-10-17T20:24:01.933Z,15.13
2022-10-17T20:26:44.635Z,15.05
2022-10-17T20:29:14.967Z,14.94
2022-10-17T20:31:43.272Z,14.98
2022-10-17T20:34:13.569Z,15.01
2022-10-17T20:36:40.660Z,14.99
2022-10-17T20:39:07.559Z,15.04
2022-10-17T20:41:34.532Z,15.01
2022-10-17T20:44:00.990Z,14.93
2022-10-17T20:46:36.729Z,14.85
2022-10-17T20:49:05.187Z,14.84
2022-10-17T20:51:31.902Z,14.84
2022-10-17T20:53:58.557Z,14.85
2022-10-17T20:56:29.186Z,14.88
2022-10-17T20:58:58.960Z,14.93
2022-10-17T21:01:26.947Z,14.99
2022-10-17T21:03:54.022Z,15.03
2022-10-17T21:06:21.376Z,15.11
2022-10-17T21:08:48.471Z,15.15
2022-10-17T21:11:18.172Z,15.24
2022-10-17T21:13:46.077Z,15.30
2022-10-17T21:16:15.185Z,15.33
2022-10-17T21:18:42.429Z,15.27
2022-10-17T21:21:18.527Z,15.22
2022-10-17T21:23:46.990Z,15.25
2022-10-17T21:26:13.942Z,15.12
2022-10-17T21:28:41.606Z,14.93
2022-10-17T21:31:18.802Z,15.14
2022-10-17T21:33:54.342Z,15.23
2022-10-17T21:36:21.783Z,15.26
2022-10-17T21:38:49.690Z,15.32
2022-10-17T21:41:19.368Z,15.15
2022-10-17T21:43:46.780Z,15.26
2022-10-17T21:46:16.267Z,15.38
2022-10-17T21:48:43.764Z,15.38
2022-10-17T21:51:12.660Z,15.32
2022-10-17T21:53:39.360Z,15.18
2022-10-17T21:56:09.301Z,15.14
2022-10-17T21:58:35.914Z,14.97
2022-10-17T22:01:11.400Z,15.19
2022-10-17T22:03:44.094Z,15.30
2022-10-17T22:09:01.972Z,15.36
2022-10-17T22:11:31.581Z,15.43
2022-10-17T22:14:05.431Z,15.50
2022-10-17T22:16:32.096Z,15.44
2022-10-17T22:19:03.233Z,15.43
2022-10-17T22:21:32.565Z,15.37
2022-10-17T22:24:01.842Z,15.31
2022-10-17T22:26:31.000Z,15.27
2022-10-17T22:28:58.067Z,15.39
2022-10-17T22:31:24.514Z,15.49
2022-10-17T22:33:51.365Z,15.58
2022-10-17T22:36:17.841Z,15.62
2022-10-17T22:38:44.237Z,15.66
2022-10-17T22:41:10.639Z,15.68
2022-10-17T22:43:37.132Z,15.64
2022-10-17T22:46:05.133Z,15.65
2022-10-17T22:48:31.872Z,15.59
2022-10-17T22:50:59.741Z,15.63
2022-10-17T22:53:27.004Z,15.62
2022-10-17T22:55:55.392Z,15.70
2022-10-17T22:58:22.262Z,15.68
2022-10-17T23:00:50.257Z,15.68
2022-10-17T23:03:17.693Z,15.67
2022-10-17T23:05:44.685Z,15.66
2022-10-17T23:08:12.270Z,15.63
2022-10-17T23:10:39.468Z,15.64
2022-10-17T23:13:05.997Z,15.59
2022-10-17T23:15:33.678Z,15.60
2022-10-17T23:18:01.537Z,15.64
2022-10-17T23:20:29.557Z,15.67
2022-10-17T23:22:56.931Z,15.68
2022-10-17T23:25:23.656Z,15.67
2022-10-17T23:27:50.201Z,15.66
2022-10-17T23:30:17.280Z,15.66
2022-10-17T23:32:43.991Z,15.72
2022-10-17T23:35:10.570Z,15.69
2022-10-17T23:37:38.044Z,15.70
2022-10-17T23:40:05.714Z,15.71
2022-10-17T23:42:32.684Z,15.70
2022-10-17T23:44:59.069Z,15.57
2022-10-17T23:47:25.531Z,15.63
2022-10-17T23:49:51.938Z,15.67
2022-10-17T23:52:18.381Z,15.69
2022-10-17T23:54:44.811Z,15.71
2022-10-17T23:57:11.192Z,15.81
2022-10-17T23:59:37.542Z,15.79
